createdAt,value
2022-10-23T00:02:02.422Z,98622.81
2022-10-23T00:05:07.137Z,98626.41
2022-10-23T00:08:09.729Z,98612.94
2022-10-23T00:11:14.269Z,98608.28
2022-10-23T00:14:18.278Z,98604.56
2022-10-23T00:17:20.977Z,98601.50
2022-10-23T00:20:24.991Z,98595.09
2022-10-23T00:23:27.593Z,98591.41
2022-10-23T00:26:30.350Z,98594.97
2022-10-23T00:29:32.956Z,98595.25
2022-10-23T00:32:35.785Z,98605.69
2022-10-23T00:35:41.835Z,98618.09
2022-10-23T00:38:45.015Z,98613.88
2022-10-23T00:41:47.617Z,98613.38
2022-10-23T00:45:10.158Z,98602.25
2022-10-23T00:48:12.768Z,98611.16
2022-10-23T00:51:16.827Z,98604.56
2022-10-23T00:54:25.279Z,98601.22
2022-10-23T01:00:32.477Z,98597.38
2022-10-23T01:03:35.260Z,98593.06
2022-10-23T01:06:44.710Z,98596.25
2022-10-23T01:09:52.504Z,98594.81
2022-10-23T01:13:02.308Z,98604.31
2022-10-23T01:16:10.169Z,98601.41
2022-10-23T01:19:20.162Z,98591.09
2022-10-23T01:22:49.478Z,98599.97
2022-10-23T01:26:00.583Z,98586.66
2022-10-23T01:29:10.098Z,98588.59
2022-10-23T01:32:15.149Z,98578.78
2022-10-23T01:35:20.431Z,98571.06
2022-10-23T01:38:27.084Z,98571.03
2022-10-23T01:41:31.490Z,98576.66
2022-10-23T01:44:38.798Z,98565.09
2022-10-23T01:47:42.952Z,98561.44
2022-10-23T01:50:46.644Z,98562.22
2022-10-23T01:53:50.877Z,98568.38
2022-10-23T01:56:54.173Z,98570.63
2022-10-23T02:00:00.485Z,98568.19
2022-10-23T02:03:04.581Z,98552.59
2022-10-23T02:06:07.667Z,98549.25
2022-10-23T02:09:10.340Z,98553.09
2022-10-23T02:12:15.404Z,98548.59
2022-10-23T02:15:25.835Z,98544.91
2022-10-23T02:18:34.277Z,98546.50
2022-10-23T02:21:42.462Z,98540.88
2022-10-23T02:24:48.519Z,98536.22
2022-10-23T02:27:54.036Z,98539.94
2022-10-23T02:31:00.021Z,98525.78
2022-10-23T02:34:03.030Z,98522.22
2022-10-23T02:37:05.795Z,98524.44
2022-10-23T02:40:10.612Z,98520.91
2022-10-23T02:43:16.784Z,98527.66
2022-10-23T02:46:26.092Z,98516.88
2022-10-23T02:49:32.758Z,98506.59
2022-10-23T02:52:39.834Z,98508.34
2022-10-23T02:55:53.976Z,98501.97
2022-10-23T02:59:01.351Z,98497.28
2022-10-23T03:02:08.365Z,98488.44
2022-10-23T03:05:13.436Z,98494.22
2022-10-23T03:08:16.124Z,98486.00
2022-10-23T03:11:18.896Z,98490.63
2022-10-23T03:14:21.533Z,98491.78
2022-10-23T03:17:26.333Z,98495.19
2022-10-23T03:20:29.052Z,98498.31
2022-10-23T03:23:31.732Z,98498.44
2022-10-23T03:26:34.487Z,98498.78
2022-10-23T03:29:37.196Z,98496.66
2022-10-23T03:32:41.402Z,98492.34
2022-10-23T03:35:44.399Z,98483.19
2022-10-23T03:38:47.144Z,98481.41
2022-10-23T03:41:49.877Z,98479.31
2022-10-23T03:44:52.534Z,98481.03
2022-10-23T03:47:56.570Z,98484.88
2022-10-23T03:50:59.237Z,98482.28
2022-10-23T03:54:02.037Z,98474.69
2022-10-23T03:57:08.406Z,98472.31
2022-10-23T04:00:12.246Z,98465.84
2022-10-23T04:03:16.226Z,98472.94
2022-10-23T04:06:18.884Z,98482.06
2022-10-23T04:09:21.569Z,98478.06
2022-10-23T04:12:25.083Z,98484.31
2022-10-23T04:15:27.664Z,98484.94
2022-10-23T04:18:31.615Z,98483.84
2022-10-23T04:21:34.321Z,98485.34
2022-10-23T04:24:37.030Z,98480.06
2022-10-23T04:27:39.871Z,98481.47
2022-10-23T04:30:42.709Z,98484.84
2022-10-23T04:33:46.672Z,98490.13
2022-10-23T04:36:49.348Z,98491.66
2022-10-23T04:39:52.016Z,98487.78
2022-10-23T04:42:54.633Z,98474.91
2022-10-23T04:45:57.348Z,98478.78
2022-10-23T04:49:01.240Z,98481.03
2022-10-23T04:52:04.346Z,98480.38
2022-10-23T04:55:09.069Z,98483.28
2022-10-23T04:58:11.874Z,98478.75
2022-10-23T05:01:14.656Z,98482.91
2022-10-23T05:04:18.759Z,98484.00
2022-10-23T05:10:29.271Z,98480.13
2022-10-23T05:13:34.890Z,98470.84
2022-10-23T05:16:40.255Z,98473.88
2022-10-23T05:19:48.750Z,98480.97
2022-10-23T05:22:53.061Z,98466.47
2022-10-23T05:25:55.693Z,98466.81
2022-10-23T05:28:58.595Z,98464.47
2022-10-23T05:32:03.638Z,98461.75
2022-10-23T05:35:11.172Z,98469.16
2022-10-23T05:38:14.736Z,98466.09
2022-10-23T05:41:17.193Z,98462.88
2022-10-23T05:44:19.878Z,98458.59
2022-10-23T05:47:22.566Z,98453.63
2022-10-23T05:50:26.693Z,98451.88
2022-10-23T05:53:29.373Z,98450.94
2022-10-23T05:56:32.122Z,98436.16
2022-10-23T05:59:34.770Z,98442.88
2022-10-23T06:02:37.593Z,98441.44
2022-10-23T06:05:41.904Z,98431.94
2022-10-23T06:08:44.725Z,98435.69
2022-10-23T06:11:48.331Z,98431.72
2022-10-23T06:14:51.862Z,98432.94
2022-10-23T06:17:54.751Z,98425.00
2022-10-23T06:21:01.514Z,98423.28
2022-10-23T06:24:04.245Z,98425.06
2022-10-23T06:27:06.882Z,98432.75
2022-10-23T06:30:10.552Z,98426.41
2022-10-23T06:33:13.299Z,98433.44
2022-10-23T06:36:17.373Z,98427.56
2022-10-23T06:39:21.321Z,98421.19
2022-10-23T06:42:24.192Z,98421.66
2022-10-23T06:45:27.067Z,98434.53
2022-10-23T06:48:29.686Z,98430.47
2022-10-23T06:51:33.786Z,98432.44
2022-10-23T06:54:36.491Z,98425.66
2022-10-23T06:57:39.219Z,98425.81
2022-10-23T07:00:41.995Z,98420.81
2022-10-23T07:03:45.045Z,98421.34
2022-10-23T07:06:49.164Z,98424.78
2022-10-23T07:09:51.800Z,98423.84
2022-10-23T07:12:54.526Z,98424.09
2022-10-23T07:15:57.289Z,98427.53
2022-10-23T07:19:01.310Z,98425.00
2022-10-23T07:22:05.427Z,98422.59
2022-10-23T07:25:08.832Z,98423.84
2022-10-23T07:28:11.403Z,98430.44
2022-10-23T07:31:14.239Z,98416.84
2022-10-23T07:34:17.018Z,98422.75
2022-10-23T07:37:21.146Z,98426.94
2022-10-23T07:40:23.919Z,98425.56
2022-10-23T07:43:26.660Z,98433.44
2022-10-23T07:46:29.298Z,98434.66
2022-10-23T07:49:32.283Z,98437.13
2022-10-23T07:52:37.348Z,98438.13
2022-10-23T07:55:39.948Z,98440.91
2022-10-23T07:58:42.624Z,98442.97
2022-10-23T08:01:47.164Z,98437.28
2022-10-23T08:04:50.273Z,98437.72
2022-10-23T08:07:54.265Z,98432.03
2022-10-23T08:10:56.985Z,98434.22
2022-10-23T08:14:00.091Z,98414.97
2022-10-23T08:17:03.289Z,98419.31
2022-10-23T08:20:07.233Z,98413.66
2022-10-23T08:23:12.738Z,98410.50
2022-10-23T08:26:16.190Z,98411.88
2022-10-23T08:29:18.691Z,98414.34
2022-10-23T08:32:21.434Z,98410.56
2022-10-23T08:35:24.282Z,98401.09
2022-10-23T08:38:28.338Z,98409.59
2022-10-23T08:41:33.767Z,98397.91
2022-10-23T08:44:41.574Z,98398.47
2022-10-23T08:47:47.904Z,98392.03
2022-10-23T08:50:53.163Z,98386.59
2022-10-23T08:54:01.786Z,98377.94
2022-10-23T08:57:05.656Z,98382.53
2022-10-23T09:00:12.517Z,98384.28
2022-10-23T09:03:15.269Z,98386.22
2022-10-23T09:06:36.406Z,98380.13
2022-10-23T09:09:53.578Z,98376.44
2022-10-23T09:12:58.676Z,98384.97
2022-10-23T09:16:05.139Z,98378.81
2022-10-23T09:19:13.749Z,98390.81
2022-10-23T09:22:16.316Z,98385.38
2022-10-23T09:25:22.660Z,98388.53
2022-10-23T09:28:26.801Z,98377.91
2022-10-23T09:31:29.469Z,98384.09
2022-10-23T09:34:33.636Z,98379.19
2022-10-23T09:37:37.568Z,98382.72
2022-10-23T09:40:44.287Z,98370.25
2022-10-23T09:43:47.114Z,98360.25
2022-10-23T09:49:59.525Z,98351.69
2022-10-23T09:53:02.467Z,98356.59
2022-10-23T09:56:11.878Z,98358.34
2022-10-23T09:59:22.862Z,98351.38
2022-10-23T10:02:28.999Z,98346.81
2022-10-23T10:05:34.358Z,98348.09
2022-10-23T10:08:41.126Z,98347.69
2022-10-23T10:11:47.578Z,98353.31
2022-10-23T10:14:56.808Z,98348.56
2022-10-23T10:18:07.010Z,98358.16
2022-10-23T10:21:15.047Z,98346.63
2022-10-23T10:24:21.280Z,98349.44
2022-10-23T10:27:35.966Z,98358.16
2022-10-23T10:30:45.524Z,98341.44
2022-10-23T10:33:54.817Z,98330.28
2022-10-23T10:36:59.185Z,98337.22
2022-10-23T10:40:08.564Z,98333.41
2022-10-23T10:43:26.374Z,98315.63
2022-10-23T10:46:33.086Z,98298.00
2022-10-23T10:49:37.967Z,98282.94
2022-10-23T10:52:49.277Z,98294.75
2022-10-23T10:55:53.611Z,98299.81
2022-10-23T10:58:59.639Z,98310.00
2022-10-23T11:02:06.575Z,98306.03
2022-10-23T11:05:16.937Z,98306.53
2022-10-23T11:08:22.356Z,98300.94
2022-10-23T11:11:27.641Z,98297.22
2022-10-23T11:14:34.174Z,98290.66
2022-10-23T11:17:39.081Z,98278.94
2022-10-23T11:20:53.573Z,98277.16
2022-10-23T11:27:29.304Z,98269.88
2022-10-23T11:30:37.146Z,98252.72
2022-10-23T11:34:07.015Z,98240.38
2022-10-23T11:37:09.895Z,98243.69
2022-10-23T11:40:23.138Z,98234.97
2022-10-23T11:43:30.615Z,98245.00
2022-10-23T11:46:36.609Z,98242.38
2022-10-23T11:49:39.366Z,98237.13
2022-10-23T11:56:31.126Z,98232.78
2022-10-23T11:59:35.435Z,98231.63
2022-10-23T12:02:43.261Z,98224.66
2022-10-23T12:05:46.533Z,98216.50
2022-10-23T12:08:51.472Z,98218.75
2022-10-23T12:12:18.069Z,98206.38
2022-10-23T12:15:22.788Z,98221.91
2022-10-23T12:18:27.484Z,98203.13
2022-10-23T12:21:36.303Z,98208.19
2022-10-23T12:24:56.895Z,98206.38
2022-10-23T12:28:02.433Z,98208.53
2022-10-23T12:31:17.861Z,98200.34
2022-10-23T12:34:33.040Z,98207.31
2022-10-23T12:37:56.096Z,98188.09
2022-10-23T12:41:04.678Z,98180.59
2022-10-23T12:44:12.774Z,98177.63
2022-10-23T12:47:18.679Z,98175.63
2022-10-23T12:50:24.537Z,98177.38
2022-10-23T12:53:27.491Z,98173.13
2022-10-23T12:56:36.981Z,98162.91
2022-10-23T12:59:41.801Z,98163.34
2022-10-23T13:02:44.555Z,98156.88
2022-10-23T13:05:48.803Z,98152.94
2022-10-23T13:08:52.456Z,98134.25
2022-10-23T13:11:55.955Z,98134.66
2022-10-23T13:15:03.449Z,98106.53
2022-10-23T13:18:07.992Z,98104.25
2022-10-23T13:21:18.552Z,98109.75
2022-10-23T13:24:23.150Z,98110.53
2022-10-23T13:27:27.798Z,98117.81
2022-10-23T13:30:32.504Z,98108.44
2022-10-23T13:33:37.536Z,98112.78
2022-10-23T13:36:53.546Z,98096.41
2022-10-23T13:40:04.486Z,98090.00
2022-10-23T13:43:15.683Z,98104.25
2022-10-23T13:46:19.402Z,98091.03
2022-10-23T13:49:22.226Z,98097.19
2022-10-23T13:52:26.131Z,98096.03
2022-10-23T13:55:29.233Z,98097.84
2022-10-23T13:58:32.326Z,98094.63
2022-10-23T14:01:36.365Z,98087.56
2022-10-23T14:04:39.429Z,98083.44
2022-10-23T14:07:43.628Z,98084.66
2022-10-23T14:10:47.203Z,98079.47
2022-10-23T14:13:50.406Z,98083.75
2022-10-23T14:16:53.200Z,98082.41
2022-10-23T14:19:55.950Z,98080.59
2022-10-23T14:22:59.955Z,98081.06
2022-10-23T14:26:03.621Z,98073.22
2022-10-23T14:29:09.885Z,98066.94
2022-10-23T14:32:14.155Z,98066.88
2022-10-23T14:35:17.071Z,98072.50
2022-10-23T14:38:21.353Z,98078.09
2022-10-23T14:41:24.342Z,98078.19
2022-10-23T14:44:27.080Z,98071.75
2022-10-23T14:47:29.933Z,98068.59
2022-10-23T14:50:32.985Z,98067.50
2022-10-23T14:53:37.007Z,98052.41
2022-10-23T14:56:40.812Z,98044.97
2022-10-23T14:59:43.761Z,98057.25
2022-10-23T15:02:46.779Z,98057.28
2022-10-23T15:05:49.494Z,98050.53
2022-10-23T15:08:55.639Z,98039.44
2022-10-23T15:11:59.163Z,98035.84
2022-10-23T15:15:02.552Z,98037.78
2022-10-23T15:18:06.110Z,98037.44
2022-10-23T15:21:10.145Z,98041.09
2022-10-23T15:24:14.297Z,98042.63
2022-10-23T15:27:16.934Z,98041.00
2022-10-23T15:30:19.752Z,98027.94
2022-10-23T15:33:22.721Z,98023.53
2022-10-23T15:36:25.657Z,98018.81
2022-10-23T15:39:33.752Z,98020.44
2022-10-23T15:42:36.432Z,98025.19
2022-10-23T15:45:39.157Z,98004.53
2022-10-23T15:48:42.611Z,98003.00
2022-10-23T15:51:46.664Z,98003.09
2022-10-23T15:54:51.340Z,98006.72
2022-10-23T15:57:54.876Z,98013.50
2022-10-23T16:00:59.208Z,98001.22
2022-10-23T16:04:03.119Z,97980.25
2022-10-23T16:07:07.250Z,97986.19
2022-10-23T16:10:12.351Z,97979.84
2022-10-23T16:13:15.778Z,97983.41
2022-10-23T16:16:19.656Z,97998.81
2022-10-23T16:19:22.868Z,98001.91
2022-10-23T16:22:25.897Z,97999.88
2022-10-23T16:25:30.606Z,98010.44
2022-10-23T16:28:34.313Z,97997.34
2022-10-23T16:31:38.036Z,98011.56
2022-10-23T16:34:41.887Z,98003.34
2022-10-23T16:37:45.435Z,98011.31
2022-10-23T16:40:54.523Z,97992.44
2022-10-23T16:43:58.049Z,97993.66
2022-10-23T16:47:02.167Z,97994.50
2022-10-23T16:50:05.946Z,97994.06
2022-10-23T16:53:08.860Z,97985.78
2022-10-23T16:56:15.267Z,97985.00
2022-10-23T16:59:18.139Z,97977.84
2022-10-23T17:02:21.238Z,97978.63
2022-10-23T17:05:23.885Z,97992.06
2022-10-23T17:08:26.539Z,98013.44
2022-10-23T17:11:32.527Z,98009.50
2022-10-23T17:14:35.867Z,98017.81
2022-10-23T17:17:39.150Z,98031.28
2022-10-23T17:20:42.110Z,98028.13
2022-10-23T17:23:45.974Z,98022.56
2022-10-23T17:26:50.287Z,98033.22
2022-10-23T17:29:53.586Z,98042.72
2022-10-23T17:32:59.462Z,98045.91
2022-10-23T17:36:04.866Z,98072.81
2022-10-23T17:39:09.198Z,98103.31
2022-10-23T17:42:13.314Z,98079.94
2022-10-23T17:45:16.048Z,98055.38
2022-10-23T17:48:18.672Z,98035.22
2022-10-23T17:51:23.192Z,98058.53
2022-10-23T17:54:27.884Z,98062.50
2022-10-23T17:57:31.999Z,98062.88
2022-10-23T18:00:36.632Z,98060.81
2022-10-23T18:03:39.894Z,98040.59
2022-10-23T18:06:43.669Z,98043.72
2022-10-23T18:09:46.128Z,98056.31
2022-10-23T18:12:50.172Z,98057.88
2022-10-23T18:15:52.777Z,98062.16
2022-10-23T18:18:55.418Z,98077.16
2022-10-23T18:21:58.160Z,98083.47
2022-10-23T18:25:01.028Z,98109.16
2022-10-23T18:28:05.440Z,98122.97
2022-10-23T18:31:09.475Z,98123.75
2022-10-23T18:34:15.829Z,98144.31
2022-10-23T18:37:18.718Z,98143.50
2022-10-23T18:40:24.292Z,98151.41
2022-10-23T18:43:43.083Z,98170.41
2022-10-23T18:46:47.889Z,98193.13
2022-10-23T18:49:50.755Z,98176.25
2022-10-23T18:52:54.007Z,98188.13
2022-10-23T18:55:56.662Z,98181.47
2022-10-23T18:59:02.782Z,98167.56
2022-10-23T19:02:05.772Z,98182.16
2022-10-23T19:05:09.267Z,98169.09
2022-10-23T19:08:12.350Z,98170.63
2022-10-23T19:11:16.910Z,98174.13
2022-10-23T19:14:20.953Z,98178.44
2022-10-23T19:17:25.841Z,98182.31
2022-10-23T19:23:36.849Z,98187.34
2022-10-23T19:26:39.620Z,98184.59
2022-10-23T19:29:45.638Z,98190.94
2022-10-23T19:32:49.260Z,98186.97
2022-10-23T19:35:51.838Z,98183.75
2022-10-23T19:38:54.669Z,98196.34
2022-10-23T19:41:58.543Z,98176.19
2022-10-23T19:45:02.764Z,98174.16
2022-10-23T19:48:05.659Z,98180.03
2022-10-23T19:51:09.238Z,98177.34
2022-10-23T19:54:12.092Z,98176.91
2022-10-23T19:57:17.030Z,98175.03
2022-10-23T20:00:24.176Z,98175.69
2022-10-23T20:03:26.931Z,98172.53
2022-10-23T20:06:32.403Z,98171.75
2022-10-23T20:09:35.129Z,98158.31
2022-10-23T20:12:37.738Z,98162.22
2022-10-23T20:15:41.746Z,98168.47
2022-10-23T20:18:44.530Z,98165.59
2022-10-23T20:21:49.034Z,98170.19
2022-10-23T20:24:51.903Z,98168.34
2022-10-23T20:27:54.546Z,98161.28
2022-10-23T20:30:58.659Z,98163.69
2022-10-23T20:34:01.303Z,98150.34
2022-10-23T20:37:03.941Z,98141.28
2022-10-23T20:40:07.625Z,98145.63
2022-10-23T20:43:10.288Z,98159.91
2022-10-23T20:46:14.394Z,98152.00
2022-10-23T20:49:17.667Z,98148.84
2022-10-23T20:52:22.040Z,98157.19
2022-10-23T20:55:24.801Z,98166.25
2022-10-23T20:58:27.463Z,98172.63
2022-10-23T21:01:32.323Z,98181.38
2022-10-23T21:04:35.126Z,98176.56
2022-10-23T21:07:38.441Z,98176.16
2022-10-23T21:10:46.156Z,98193.22
2022-10-23T21:13:48.811Z,98183.34
2022-10-23T21:16:53.232Z,98186.09
2022-10-23T21:19:56.112Z,98199.16
2022-10-23T21:22:59.104Z,98190.84
2022-10-23T21:26:04.857Z,98184.53
2022-10-23T21:29:18.870Z,98206.72
2022-10-23T21:32:23.427Z,98191.22
2022-10-23T21:35:29.981Z,98196.41
2022-10-23T21:38:34.121Z,98202.75
2022-10-23T21:41:36.873Z,98204.75
2022-10-23T21:44:41.088Z,98202.75
2022-10-23T21:47:46.331Z,98192.44
2022-10-23T21:53:53.170Z,98188.09
2022-10-23T21:56:56.762Z,98183.75
2022-10-23T21:59:59.937Z,98188.09
2022-10-23T22:03:05.368Z,98171.06
2022-10-23T22:06:10.902Z,98162.75
2022-10-23T22:09:16.138Z,98158.38
2022-10-23T22:12:19.488Z,98145.34
2022-10-23T22:15:22.258Z,98156.03
2022-10-23T22:18:27.220Z,98153.22
2022-10-23T22:21:32.484Z,98140.56
2022-10-23T22:24:37.942Z,98146.84
2022-10-23T22:27:41.200Z,98145.69
2022-10-23T22:30:44.376Z,98147.63
2022-10-23T22:33:49.634Z,98149.66
2022-10-23T22:36:53.312Z,98160.72
2022-10-23T22:39:56.902Z,98150.41
2022-10-23T22:43:00.120Z,98154.38
2022-10-23T22:46:05.273Z,98140.91
2022-10-23T22:49:10.927Z,98159.16
2022-10-23T22:52:14.395Z,98140.94
2022-10-23T22:55:17.510Z,98150.03
2022-10-23T22:58:21.036Z,98150.81
2022-10-23T23:01:26.834Z,98153.16
2022-10-23T23:04:39.175Z,98153.56
2022-10-23T23:07:42.289Z,98158.69
2022-10-23T23:10:53.649Z,98170.56
2022-10-23T23:13:56.234Z,98162.22
2022-10-23T23:16:59.049Z,98162.16
2022-10-23T23:20:03.085Z,98170.09
2022-10-23T23:23:05.958Z,98170.09
2022-10-23T23:26:09.515Z,98165.31
2022-10-23T23:29:12.964Z,98164.56
2022-10-23T23:32:15.593Z,98170.88
2022-10-23T23:35:20.244Z,98170.88
2022-10-23T23:38:22.813Z,98174.47
2022-10-23T23:41:26.062Z,98186.72
2022-10-23T23:44:28.678Z,98177.22
2022-10-23T23:47:31.500Z,98165.31
2022-10-23T23:50:35.804Z,98160.50
2022-10-23T23:53:38.389Z,98162.44
2022-10-23T23:56:41.084Z,98166.78
2022-10-23T23:59:43.686Z,98168.78
